Time;durP1;ratioP1;P1;durP2;ratioP2;P2;SDS_P1;SDS_P2;PMS_P1;PMS_P2;Temp;Humidity;BMP_temperature;BMP_pressure;BME280_temperature;BME280_humidity;BME280_pressure;Samples;Min_cycle;Max_cycle;Signal;HPM_P1;HPM_P2
2021/09/21 00:01:46;;;;;;;15.40;7.10;;;9.90;99.90;;;;;;5026873;28;20364;-60
2021/09/21 00:04:11;;;;;;;40.97;8.50;;;9.90;99.90;;;;;;5025403;28;20595;-60
2021/09/21 00:06:37;;;;;;;18.30;7.57;;;9.90;99.90;;;;;;5026131;28;20612;-58
2021/09/21 00:09:03;;;;;;;53.27;8.13;;;9.80;99.90;;;;;;5025409;28;20266;-61
2021/09/21 00:11:28;;;;;;;33.50;9.33;;;9.80;99.90;;;;;;5005145;28;20177;-60
2021/09/21 00:13:54;;;;;;;74.47;12.40;;;9.80;99.90;;;;;;5021641;28;20570;-60
2021/09/21 00:16:20;;;;;;;51.27;8.70;;;9.70;99.90;;;;;;5024895;28;20172;-59
2021/09/21 00:18:48;;;;;;;36.60;9.27;;;9.70;99.90;;;;;;5025360;28;20211;-60
2021/09/21 00:21:14;;;;;;;27.63;10.33;;;9.60;99.90;;;;;;5027021;28;20423;-59
2021/09/21 00:23:40;;;;;;;27.10;8.97;;;9.60;99.90;;;;;;5009578;28;20488;-60
2021/09/21 00:26:05;;;;;;;35.43;8.50;;;9.60;99.90;;;;;;5008232;28;20184;-60
2021/09/21 00:28:31;;;;;;;22.77;8.70;;;9.60;99.90;;;;;;5007893;28;20204;-60
2021/09/21 00:31:03;;;;;;;34.07;10.00;;;9.60;99.90;;;;;;5023445;28;20618;-59
2021/09/21 00:33:34;;;;;;;26.97;11.60;;;9.60;99.90;;;;;;5009482;28;20179;-60
2021/09/21 00:36:00;;;;;;;32.37;12.70;;;9.50;99.90;;;;;;5019570;28;20997;-60
2021/09/21 00:38:26;;;;;;;41.23;13.50;;;9.60;99.90;;;;;;5002040;28;20512;-61
2021/09/21 00:40:51;;;;;;;26.50;11.87;;;9.60;99.90;;;;;;5024292;28;20658;-60
2021/09/21 00:43:23;;;;;;;26.83;12.17;;;9.60;99.90;;;;;;5009572;28;20431;-59
2021/09/21 00:45:52;;;;;;;35.00;12.27;;;9.60;99.90;;;;;;5025798;28;20619;-61
2021/09/21 00:48:18;;;;;;;43.73;12.23;;;9.60;99.90;;;;;;5026667;28;20837;-60
2021/09/21 00:50:44;;;;;;;48.00;12.73;;;9.70;99.90;;;;;;5027998;28;20962;-60
2021/09/21 00:53:09;;;;;;;94.93;13.23;;;9.70;99.90;;;;;;5007955;28;20532;-60
2021/09/21 00:55:35;;;;;;;29.83;9.43;;;9.60;99.90;;;;;;5027053;28;20171;-60
2021/09/21 00:58:01;;;;;;;56.03;12.90;;;9.60;99.90;;;;;;5010600;28;20235;-60
2021/09/21 01:00:27;;;;;;;28.50;10.47;;;9.60;99.90;;;;;;5030015;28;20179;-60
2021/09/21 01:02:52;;;;;;;60.37;10.40;;;9.60;99.90;;;;;;5026225;28;20267;-59
2021/09/21 01:05:21;;;;;;;28.70;10.77;;;9.50;99.90;;;;;;5027097;28;20869;-60
2021/09/21 01:07:47;;;;;;;23.43;11.50;;;9.50;99.90;;;;;;5008111;28;20227;-60
2021/09/21 01:10:19;;;;;;;28.10;10.03;;;9.50;99.90;;;;;;5026084;28;20516;-60
2021/09/21 01:12:48;;;;;;;25.67;8.50;;;9.50;99.90;;;;;;5026325;28;20591;-60
2021/09/21 01:15:15;;;;;;;56.60;9.27;;;9.60;99.90;;;;;;5026049;28;20757;-59
2021/09/21 01:17:41;;;;;;;65.67;9.67;;;9.60;99.90;;;;;;5027843;28;20528;-59
2021/09/21 01:20:08;;;;;;;55.33;9.60;;;9.60;99.90;;;;;;5028848;28;20442;-60
2021/09/21 01:22:34;;;;;;;67.73;11.70;;;9.50;99.90;;;;;;5026622;28;20435;-60
2021/09/21 01:25:00;;;;;;;38.73;9.80;;;9.50;99.90;;;;;;5029283;28;20437;-60
2021/09/21 01:27:26;;;;;;;99.57;12.07;;;9.40;99.90;;;;;;5031879;28;20199;-60
2021/09/21 01:29:51;;;;;;;56.10;8.83;;;9.40;99.90;;;;;;5028984;28;20593;-60
2021/09/21 01:32:21;;;;;;;32.27;8.90;;;9.40;99.90;;;;;;5028637;28;20182;-60
2021/09/21 01:34:48;;;;;;;28.30;8.77;;;9.40;99.90;;;;;;5027852;28;20267;-60
2021/09/21 01:37:13;;;;;;;91.77;11.83;;;9.40;99.90;;;;;;5029793;28;20485;-60
2021/09/21 01:39:41;;;;;;;38.70;10.20;;;9.40;99.90;;;;;;5026183;28;20543;-60
2021/09/21 01:42:08;;;;;;;27.73;11.00;;;9.40;99.90;;;;;;5021237;28;20637;-60
2021/09/21 01:44:34;;;;;;;36.57;10.43;;;9.30;99.90;;;;;;5026666;28;20532;-60
2021/09/21 01:47:03;;;;;;;30.17;12.40;;;9.40;99.90;;;;;;5028555;28;20986;-60
2021/09/21 01:49:35;;;;;;;26.53;11.80;;;9.40;99.90;;;;;;5030121;28;20186;-59
2021/09/21 01:52:17;;;;;;;26.87;11.23;;;9.40;99.90;;;;;;5029048;28;20434;-60
2021/09/21 02:00:11;;;;;;;47.43;12.50;;;9.40;99.90;;;;;;5028841;28;20476;-59
2021/09/21 02:02:37;;;;;;;32.20;13.27;;;9.40;99.90;;;;;;5025028;28;20494;-60
2021/09/21 02:05:03;;;;;;;36.40;13.50;;;9.40;99.90;;;;;;5028644;28;20442;-60
2021/09/21 02:07:29;;;;;;;33.63;12.30;;;9.40;99.90;;;;;;5030613;28;20227;-59
2021/09/21 02:09:54;;;;;;;26.53;11.30;;;9.40;99.90;;;;;;5013815;28;20466;-60
2021/09/21 02:12:23;;;;;;;20.30;11.00;;;9.40;99.90;;;;;;5025629;28;20187;-59
2021/09/21 02:14:48;;;;;;;25.80;11.17;;;9.50;99.90;;;;;;5010760;28;20184;-60
2021/09/21 02:17:14;;;;;;;23.37;10.47;;;9.50;99.90;;;;;;5029848;28;20472;-60
2021/09/21 02:19:40;;;;;;;24.33;8.93;;;9.40;99.90;;;;;;5009466;28;20250;-60
2021/09/21 02:22:06;;;;;;;16.80;10.07;;;9.40;99.90;;;;;;5027145;28;20172;-61
2021/09/21 02:24:32;;;;;;;19.83;9.93;;;9.50;99.90;;;;;;5033075;28;20782;-59
2021/09/21 02:26:58;;;;;;;20.77;9.93;;;9.50;99.90;;;;;;5003501;28;20455;-60
2021/09/21 02:29:25;;;;;;;20.10;10.30;;;9.50;99.90;;;;;;5027744;28;20232;-60
2021/09/21 02:31:51;;;;;;;19.27;9.40;;;9.50;99.90;;;;;;5012587;28;20188;-59
2021/09/21 02:34:17;;;;;;;26.20;11.53;;;9.50;99.90;;;;;;5006617;28;20477;-59
2021/09/21 02:36:43;;;;;;;28.03;12.10;;;9.50;99.90;;;;;;5020514;28;20405;-60
2021/09/21 02:39:10;;;;;;;34.60;13.10;;;9.50;99.90;;;;;;5028452;28;20757;-60
2021/09/21 02:41:36;;;;;;;37.33;12.63;;;9.60;99.90;;;;;;5029394;28;20171;-60
2021/09/21 02:44:02;;;;;;;25.80;11.23;;;9.60;99.90;;;;;;5005388;28;20414;-60
2021/09/21 02:46:27;;;;;;;33.53;11.90;;;9.60;99.90;;;;;;5010945;28;20934;-61
2021/09/21 02:48:53;;;;;;;22.77;11.23;;;9.60;99.90;;;;;;5029632;28;20199;-60
2021/09/21 02:51:19;;;;;;;28.93;11.00;;;9.60;99.90;;;;;;5012497;28;20171;-61
2021/09/21 02:53:44;;;;;;;32.73;12.20;;;9.60;99.90;;;;;;5029146;28;20329;-61
2021/09/21 02:56:12;;;;;;;29.27;11.37;;;9.60;99.90;;;;;;5011423;28;20191;-60
2021/09/21 02:58:39;;;;;;;33.20;11.73;;;9.60;99.90;;;;;;5024362;28;20215;-60
2021/09/21 03:01:05;;;;;;;30.70;12.60;;;9.60;99.90;;;;;;5027308;28;20822;-60
2021/09/21 03:03:34;;;;;;;37.40;15.40;;;9.60;99.90;;;;;;5028150;28;20438;-60
2021/09/21 03:06:04;;;;;;;24.63;10.30;;;9.60;99.90;;;;;;5029755;28;20637;-60
2021/09/21 03:08:33;;;;;;;25.83;11.27;;;9.60;99.90;;;;;;5028663;28;20454;-60
2021/09/21 03:19:12;;;;;;;31.30;14.50;;;9.70;99.90;;;;;;5019027;28;20972;-60
2021/09/21 03:21:37;;;;;;;34.43;14.83;;;9.70;99.90;;;;;;5013857;28;20434;-59
2021/09/21 03:24:06;;;;;;;27.60;12.37;;;9.70;99.90;;;;;;5025553;28;20179;-60
2021/09/21 03:26:31;;;;;;;24.13;11.70;;;9.70;99.90;;;;;;5026979;28;20207;-60
2021/09/21 03:28:57;;;;;;;22.47;10.77;;;9.70;99.90;;;;;;5019060;28;20439;-59
2021/09/21 03:31:23;;;;;;;28.90;11.90;;;9.70;99.90;;;;;;5026608;28;20790;-60
2021/09/21 03:33:48;;;;;;;34.53;13.17;;;9.70;99.90;;;;;;5025317;28;20562;-60
2021/09/21 03:36:14;;;;;;;36.63;15.30;;;9.70;99.90;;;;;;5024967;28;20215;-60
2021/09/21 03:38:40;;;;;;;30.93;14.40;;;9.70;99.90;;;;;;5022753;28;20230;-60
2021/09/21 03:41:05;;;;;;;32.37;14.23;;;9.80;99.90;;;;;;5028895;28;20211;-60
2021/09/21 03:43:31;;;;;;;32.07;13.77;;;9.80;99.90;;;;;;5028673;28;20255;-60
2021/09/21 03:45:57;;;;;;;18.60;10.30;;;9.80;99.90;;;;;;5025939;28;20183;-60
2021/09/21 03:48:24;;;;;;;19.80;9.90;;;9.80;99.90;;;;;;5026424;28;20219;-60
2021/09/21 03:50:50;;;;;;;18.83;10.20;;;9.80;99.90;;;;;;5028923;28;20233;-60
2021/09/21 03:53:16;;;;;;;18.97;9.40;;;9.80;99.90;;;;;;5021381;28;20434;-60
2021/09/21 03:55:41;;;;;;;15.30;8.90;;;9.80;99.90;;;;;;5026242;28;20562;-60
2021/09/21 03:58:07;;;;;;;14.77;8.23;;;9.80;99.90;;;;;;5023503;28;20289;-59
2021/09/21 04:00:33;;;;;;;11.33;7.50;;;9.80;99.90;;;;;;5017954;28;20179;-60
2021/09/21 04:02:58;;;;;;;17.10;8.67;;;9.80;99.90;;;;;;5036826;28;20241;-59
2021/09/21 04:05:24;;;;;;;15.70;8.67;;;9.80;99.90;;;;;;5021986;28;20175;-58
2021/09/21 04:07:51;;;;;;;16.93;8.40;;;9.80;99.90;;;;;;5024874;28;20206;-59
2021/09/21 04:10:18;;;;;;;18.07;9.10;;;9.80;99.90;;;;;;5020618;28;20182;-59
2021/09/21 04:12:43;;;;;;;17.30;8.97;;;9.80;99.90;;;;;;5020088;28;20437;-60
2021/09/21 04:15:10;;;;;;;20.00;9.33;;;9.80;99.90;;;;;;5003800;28;20439;-60
2021/09/21 04:17:36;;;;;;;18.73;10.43;;;9.80;99.90;;;;;;5009406;28;20644;-60
2021/09/21 04:20:02;;;;;;;21.20;10.77;;;9.80;99.90;;;;;;5025141;28;21165;-59
2021/09/21 04:22:28;;;;;;;17.63;9.77;;;9.90;99.90;;;;;;5025458;28;20427;-60
2021/09/21 04:24:55;;;;;;;14.27;9.20;;;9.90;99.90;;;;;;5026170;28;20461;-59
2021/09/21 04:27:21;;;;;;;13.80;8.40;;;9.90;99.90;;;;;;5024846;28;20734;-59
2021/09/21 04:29:50;;;;;;;13.40;7.70;;;9.90;99.90;;;;;;4997577;28;20561;-59
2021/09/21 04:32:19;;;;;;;16.47;8.47;;;9.90;99.90;;;;;;5007160;28;20430;-59
2021/09/21 04:34:47;;;;;;;17.70;8.57;;;9.90;99.90;;;;;;5022615;28;20445;-60
2021/09/21 04:37:12;;;;;;;13.47;8.10;;;9.90;99.90;;;;;;5021421;28;20520;-60
2021/09/21 04:39:41;;;;;;;14.03;8.30;;;9.90;99.90;;;;;;5019566;28;20480;-59
2021/09/21 04:42:07;;;;;;;19.83;9.33;;;9.90;99.90;;;;;;5021062;28;20173;-61
2021/09/21 04:44:33;;;;;;;20.43;9.60;;;9.90;99.90;;;;;;5004878;28;20438;-60
2021/09/21 04:46:59;;;;;;;16.83;8.97;;;9.90;99.90;;;;;;5020984;28;20465;-58
2021/09/21 04:49:25;;;;;;;15.13;8.07;;;9.80;99.90;;;;;;5023672;28;20438;-61
2021/09/21 04:51:50;;;;;;;20.20;8.30;;;9.80;99.90;;;;;;5021238;28;20206;-60
2021/09/21 04:54:16;;;;;;;18.30;7.97;;;9.80;99.90;;;;;;5030117;28;20191;-61
2021/09/21 04:56:42;;;;;;;18.47;8.83;;;9.80;99.90;;;;;;5027822;28;20214;-60
2021/09/21 04:59:07;;;;;;;17.20;9.00;;;9.80;99.90;;;;;;5031116;28;20192;-61
2021/09/21 05:01:33;;;;;;;15.37;9.30;;;9.90;99.90;;;;;;5030123;28;20194;-60
2021/09/21 05:03:58;;;;;;;19.60;9.83;;;9.90;99.90;;;;;;5031852;28;20191;-60
2021/09/21 05:06:24;;;;;;;18.00;8.77;;;9.90;99.90;;;;;;5029664;28;20186;-61
2021/09/21 05:08:50;;;;;;;16.70;9.60;;;9.90;99.90;;;;;;5029162;28;20176;-61
2021/09/21 05:11:15;;;;;;;16.70;9.70;;;10.00;99.90;;;;;;5013520;28;20191;-60
2021/09/21 05:13:41;;;;;;;19.80;11.30;;;10.00;99.90;;;;;;5032367;28;20220;-60
2021/09/21 05:16:07;;;;;;;16.40;10.00;;;10.00;99.90;;;;;;5029322;28;20679;-60
2021/09/21 05:18:33;;;;;;;23.33;10.07;;;10.00;99.90;;;;;;5029095;28;20214;-59
2021/09/21 05:20:59;;;;;;;21.87;9.63;;;10.00;99.90;;;;;;5035203;28;20606;-60
2021/09/21 05:23:24;;;;;;;22.37;8.97;;;10.00;99.90;;;;;;5023362;28;20431;-61
2021/09/21 05:25:50;;;;;;;16.10;9.30;;;10.00;99.90;;;;;;5019235;28;20708;-61
2021/09/21 05:28:16;;;;;;;24.10;11.17;;;10.00;99.90;;;;;;5030847;28;20203;-60
2021/09/21 05:30:42;;;;;;;23.30;9.70;;;10.00;99.90;;;;;;5029370;28;20426;-61
2021/09/21 05:33:07;;;;;;;21.43;9.90;;;10.00;99.90;;;;;;5024900;28;20176;-59
2021/09/21 05:35:33;;;;;;;18.33;10.50;;;10.10;99.90;;;;;;5030383;28;20230;-61
2021/09/21 05:37:59;;;;;;;25.67;10.10;;;10.10;99.90;;;;;;5012413;28;20199;-58
2021/09/21 05:40:26;;;;;;;21.60;11.20;;;10.10;99.90;;;;;;5030273;28;20338;-60
2021/09/21 05:42:52;;;;;;;20.27;10.07;;;10.00;99.90;;;;;;5017243;28;20188;-59
2021/09/21 05:45:17;;;;;;;23.07;10.50;;;10.00;99.90;;;;;;5028831;28;20499;-60
2021/09/21 05:47:43;;;;;;;25.10;11.37;;;10.00;99.90;;;;;;5023167;28;20697;-59
2021/09/21 05:50:11;;;;;;;28.40;12.80;;;10.00;99.90;;;;;;5022556;28;20180;-60
2021/09/21 05:52:36;;;;;;;24.80;11.27;;;10.10;99.90;;;;;;5019054;28;20653;-60
2021/09/21 05:55:04;;;;;;;28.83;11.00;;;10.10;99.90;;;;;;5001673;28;20419;-60
2021/09/21 05:57:29;;;;;;;25.73;12.70;;;10.10;99.90;;;;;;5025591;28;20417;-59
2021/09/21 05:59:55;;;;;;;27.67;13.70;;;10.10;99.90;;;;;;5026974;28;20450;-60
2021/09/21 06:02:23;;;;;;;27.43;13.90;;;10.20;99.90;;;;;;5022451;28;20215;-60
2021/09/21 06:04:52;;;;;;;22.60;11.33;;;10.20;99.90;;;;;;5025465;28;20207;-61
2021/09/21 06:07:19;;;;;;;26.30;13.03;;;10.20;99.90;;;;;;5028649;28;20447;-61
2021/09/21 06:09:44;;;;;;;28.57;13.83;;;10.20;99.90;;;;;;5010363;28;20773;-60
2021/09/21 06:12:10;;;;;;;25.60;12.80;;;10.30;99.90;;;;;;5031052;28;20438;-60
2021/09/21 06:14:36;;;;;;;27.17;12.27;;;10.30;99.90;;;;;;5030397;28;20285;-61
2021/09/21 06:17:03;;;;;;;27.63;12.63;;;10.30;99.90;;;;;;5029625;28;20203;-60
2021/09/21 06:19:29;;;;;;;25.27;11.37;;;10.30;99.90;;;;;;5029782;28;20565;-60
2021/09/21 06:21:54;;;;;;;32.87;12.33;;;10.40;99.90;;;;;;5028787;28;20529;-59
2021/09/21 06:24:20;;;;;;;27.70;12.00;;;10.40;99.90;;;;;;5029499;28;20645;-60
2021/09/21 06:26:46;;;;;;;25.17;13.33;;;10.40;99.90;;;;;;5025380;28;20814;-60
2021/09/21 06:29:11;;;;;;;32.57;13.23;;;10.40;99.90;;;;;;5029438;28;20187;-61
2021/09/21 06:31:37;;;;;;;30.27;12.30;;;10.40;99.90;;;;;;5010597;28;20271;-60
2021/09/21 06:34:03;;;;;;;26.93;13.27;;;10.40;99.90;;;;;;5023485;28;21178;-60
2021/09/21 06:36:28;;;;;;;27.10;11.90;;;10.40;99.90;;;;;;5024016;28;20267;-61
2021/09/21 06:38:54;;;;;;;25.20;11.57;;;10.40;99.90;;;;;;5010240;28;20195;-59
2021/09/21 06:41:20;;;;;;;28.93;12.20;;;10.40;99.90;;;;;;5022039;28;20237;-61
2021/09/21 06:43:45;;;;;;;24.93;11.80;;;10.50;99.90;;;;;;5019750;28;20179;-59
2021/09/21 06:46:11;;;;;;;24.60;11.77;;;10.50;99.90;;;;;;5031052;28;20180;-60
2021/09/21 06:48:39;;;;;;;28.60;12.60;;;10.50;99.90;;;;;;5028060;28;20281;-60
2021/09/21 06:51:06;;;;;;;27.50;13.30;;;10.50;99.90;;;;;;5022868;28;20190;-60
2021/09/21 06:53:32;;;;;;;33.17;13.23;;;10.50;99.90;;;;;;5021215;28;20953;-61
2021/09/21 06:56:01;;;;;;;27.10;12.50;;;10.50;99.90;;;;;;5024742;28;20548;-60
2021/09/21 06:58:26;;;;;;;33.07;12.63;;;10.50;99.90;;;;;;5029915;28;20742;-61
2021/09/21 07:00:52;;;;;;;26.80;12.57;;;10.60;99.90;;;;;;5030132;28;20686;-60
2021/09/21 07:03:18;;;;;;;26.47;11.43;;;10.60;99.90;;;;;;5031286;28;20282;-59
2021/09/21 07:05:44;;;;;;;33.67;14.63;;;10.60;99.90;;;;;;5031137;28;20226;-60
2021/09/21 07:08:09;;;;;;;30.80;14.57;;;10.60;99.90;;;;;;5030296;28;20719;-59
2021/09/21 07:10:38;;;;;;;39.00;13.40;;;10.70;99.90;;;;;;5030745;28;20521;-60
2021/09/21 07:13:03;;;;;;;30.70;12.97;;;10.70;99.90;;;;;;5035889;28;20200;-60
2021/09/21 07:15:29;;;;;;;32.17;14.70;;;10.80;99.90;;;;;;5028862;28;20832;-60
2021/09/21 07:17:55;;;;;;;30.40;13.00;;;10.90;99.90;;;;;;5029182;28;20202;-60
2021/09/21 07:20:22;;;;;;;26.53;13.60;;;11.00;99.90;;;;;;5029804;28;20247;-61
2021/09/21 07:22:49;;;;;;;25.03;13.20;;;11.10;99.90;;;;;;5028694;28;20423;-61
2021/09/21 07:25:14;;;;;;;23.27;12.10;;;11.20;99.90;;;;;;5029311;28;20500;-61
2021/09/21 07:27:40;;;;;;;28.00;13.50;;;11.30;99.90;;;;;;5028881;28;20943;-60
2021/09/21 07:30:06;;;;;;;28.53;13.30;;;11.40;99.90;;;;;;5028813;28;20648;-60
2021/09/21 07:32:33;;;;;;;30.00;13.13;;;11.50;99.90;;;;;;5029822;28;20485;-61
2021/09/21 07:35:00;;;;;;;25.43;13.60;;;11.60;99.90;;;;;;5028885;28;20409;-60
2021/09/21 07:37:25;;;;;;;28.40;13.00;;;11.70;99.90;;;;;;5029860;28;20525;-59
2021/09/21 07:39:51;;;;;;;25.30;14.13;;;11.80;99.90;;;;;;5027934;28;20540;-60
2021/09/21 07:42:17;;;;;;;30.20;14.57;;;11.90;99.90;;;;;;5029637;28;20191;-61
2021/09/21 07:44:45;;;;;;;35.20;15.00;;;12.00;99.90;;;;;;5029093;28;20692;-61
2021/09/21 07:47:11;;;;;;;33.73;13.20;;;12.00;99.90;;;;;;5023420;28;20449;-60
2021/09/21 07:49:37;;;;;;;26.70;12.47;;;12.10;99.90;;;;;;5027900;28;20407;-60
2021/09/21 07:52:03;;;;;;;23.23;13.00;;;12.20;99.90;;;;;;5020100;28;20802;-59
2021/09/21 07:54:28;;;;;;;33.63;13.70;;;12.20;99.90;;;;;;5024491;28;20827;-59
2021/09/21 07:56:54;;;;;;;28.83;13.07;;;12.30;99.90;;;;;;5009896;28;20267;-60
2021/09/21 07:59:20;;;;;;;22.43;12.67;;;12.30;99.90;;;;;;5007487;28;20669;-60
2021/09/21 08:01:45;;;;;;;26.10;13.10;;;12.30;99.90;;;;;;5011461;28;20175;-61
2021/09/21 08:04:11;;;;;;;26.47;14.67;;;12.30;99.90;;;;;;5022797;28;20171;-60
2021/09/21 08:06:37;;;;;;;23.40;12.87;;;12.30;99.90;;;;;;5045801;28;20195;-60
2021/09/21 08:09:03;;;;;;;25.53;13.70;;;12.30;99.90;;;;;;5027384;28;20199;-60
2021/09/21 08:11:29;;;;;;;31.03;15.27;;;12.40;99.90;;;;;;5029227;28;20528;-60
2021/09/21 08:13:55;;;;;;;24.83;13.93;;;12.50;99.90;;;;;;5027997;28;21069;-60
2021/09/21 08:16:21;;;;;;;27.47;14.40;;;12.60;99.90;;;;;;5028828;28;20625;-60
2021/09/21 08:18:46;;;;;;;29.83;13.90;;;12.70;99.90;;;;;;5011530;28;20490;-60
2021/09/21 08:21:12;;;;;;;30.47;14.40;;;12.80;99.90;;;;;;5028823;28;20453;-60
2021/09/21 08:23:38;;;;;;;28.50;13.77;;;12.90;99.90;;;;;;5011651;28;20255;-59
2021/09/21 08:26:04;;;;;;;28.90;15.50;;;12.90;99.90;;;;;;5009946;28;20165;-60
2021/09/21 08:28:29;;;;;;;29.23;14.03;;;13.00;99.90;;;;;;5019875;28;20366;-60
2021/09/21 08:30:55;;;;;;;27.43;14.40;;;13.10;99.90;;;;;;5026926;28;20180;-60
2021/09/21 08:33:21;;;;;;;23.97;13.10;;;13.20;99.90;;;;;;5034647;28;20236;-60
2021/09/21 08:35:47;;;;;;;27.20;13.87;;;13.20;99.90;;;;;;5027140;28;20419;-60
2021/09/21 08:38:12;;;;;;;23.30;13.10;;;13.20;99.90;;;;;;5031483;28;20715;-60
2021/09/21 08:40:38;;;;;;;27.70;14.30;;;13.30;99.90;;;;;;5007806;28;20259;-60
2021/09/21 08:43:04;;;;;;;26.50;13.40;;;13.30;99.90;;;;;;5013511;28;20219;-59
2021/09/21 08:45:30;;;;;;;25.90;13.67;;;13.40;99.90;;;;;;5012642;28;20172;-60
2021/09/21 08:47:55;;;;;;;26.73;12.80;;;13.50;99.90;;;;;;5034711;28;20303;-60
2021/09/21 08:50:23;;;;;;;23.60;14.27;;;13.60;99.90;;;;;;5031653;28;20508;-61
2021/09/21 08:52:49;;;;;;;22.50;12.53;;;13.60;99.90;;;;;;5030755;28;20168;-60
2021/09/21 08:55:15;;;;;;;25.80;12.73;;;13.70;99.90;;;;;;5028983;28;20505;-60
2021/09/21 08:57:42;;;;;;;23.37;11.47;;;13.80;99.90;;;;;;5014094;28;20203;-60
2021/09/21 09:00:20;;;;;;;24.60;12.80;;;13.90;99.90;;;;;;5041065;28;20508;-60
2021/09/21 09:02:46;;;;;;;22.63;12.40;;;14.10;99.90;;;;;;5033071;28;20853;-59
2021/09/21 09:05:12;;;;;;;28.23;14.20;;;14.40;99.90;;;;;;5025607;28;21150;-60
2021/09/21 09:07:50;;;;;;;21.00;11.23;;;14.70;99.90;;;;;;5012628;28;20188;-60
2021/09/21 09:10:17;;;;;;;21.27;10.60;;;15.00;99.90;;;;;;5029480;28;20171;-59
2021/09/21 09:12:42;;;;;;;20.73;9.73;;;15.20;99.90;;;;;;5032234;28;20414;-60
2021/09/21 09:15:15;;;;;;;16.47;10.53;;;15.30;99.90;;;;;;5032165;28;20865;-59
2021/09/21 09:17:55;;;;;;;17.80;9.70;;;15.40;99.90;;;;;;5032362;28;20238;-61
2021/09/21 09:20:36;;;;;;;16.23;9.40;;;15.40;99.90;;;;;;5031594;28;20477;-61
2021/09/21 09:23:07;;;;;;;13.53;9.23;;;15.30;99.90;;;;;;5014410;28;20411;-60
2021/09/21 09:25:53;;;;;;;18.10;10.67;;;15.30;99.90;;;;;;5031066;28;20437;-60
2021/09/21 09:28:24;;;;;;;20.57;9.43;;;15.40;99.90;;;;;;5030695;28;20437;-56
2021/09/21 09:30:52;;;;;;;15.27;9.70;;;15.40;99.90;;;;;;5032114;28;20545;-60
2021/09/21 09:33:19;;;;;;;13.63;9.30;;;15.40;99.90;;;;;;5025340;28;20430;-60
2021/09/21 09:35:49;;;;;;;17.63;10.13;;;15.30;99.90;;;;;;5031996;28;20434;-60
2021/09/21 09:38:20;;;;;;;20.17;9.37;;;15.20;99.90;;;;;;5030013;28;20418;-61
2021/09/21 09:40:50;;;;;;;16.17;9.50;;;15.10;99.90;;;;;;5031627;28;20484;-60
2021/09/21 09:43:19;;;;;;;18.40;10.27;;;14.90;99.90;;;;;;5042560;28;20836;-60
2021/09/21 09:45:47;;;;;;;17.00;9.97;;;14.70;99.90;;;;;;5039846;28;20778;-60
2021/09/21 09:48:17;;;;;;;18.67;9.60;;;14.60;99.90;;;;;;5031800;28;20818;-59
2021/09/21 09:50:45;;;;;;;17.90;10.17;;;14.50;99.90;;;;;;5031177;28;20476;-60
2021/09/21 09:53:23;;;;;;;24.50;14.40;;;14.40;99.90;;;;;;5031208;28;20406;-60
2021/09/21 09:55:52;;;;;;;27.90;15.50;;;14.30;99.90;;;;;;5031503;28;20445;-60
2021/09/21 09:58:19;;;;;;;27.43;15.53;;;14.20;99.90;;;;;;5029748;28;20464;-60
2021/09/21 10:00:45;;;;;;;26.93;15.87;;;14.10;99.90;;;;;;5013007;28;20440;-60
2021/09/21 10:03:12;;;;;;;21.90;13.80;;;14.00;99.90;;;;;;5011778;28;20407;-60
2021/09/21 10:05:40;;;;;;;25.87;14.70;;;14.00;99.90;;;;;;5010299;28;20430;-59
2021/09/21 10:08:08;;;;;;;26.43;14.80;;;13.90;99.90;;;;;;5019141;28;20774;-59
2021/09/21 10:10:37;;;;;;;25.37;13.60;;;13.90;99.90;;;;;;5030351;28;20461;-60
2021/09/21 10:13:07;;;;;;;23.37;13.63;;;13.90;99.90;;;;;;5031710;28;20977;-60
2021/09/21 10:15:33;;;;;;;31.13;15.10;;;13.90;99.90;;;;;;5029792;28;20566;-60
2021/09/21 10:18:00;;;;;;;22.73;13.80;;;14.00;99.90;;;;;;5029844;28;20430;-61
2021/09/21 10:20:37;;;;;;;28.00;15.07;;;14.00;99.90;;;;;;5030444;28;20458;-61
2021/09/21 10:23:07;;;;;;;26.37;14.33;;;14.00;99.90;;;;;;5031116;28;20410;-61
2021/09/21 10:25:39;;;;;;;24.37;13.50;;;14.10;99.90;;;;;;5026300;28;20849;-58
2021/09/21 10:28:20;;;;;;;26.37;14.33;;;14.10;99.90;;;;;;5030425;28;20442;-59
2021/09/21 10:30:57;;;;;;;24.77;14.00;;;14.20;99.90;;;;;;5032412;28;20437;-58
2021/09/21 10:33:24;;;;;;;28.07;14.87;;;14.20;99.90;;;;;;5038346;28;20410;-59
2021/09/21 10:35:52;;;;;;;24.40;13.83;;;14.30;99.90;;;;;;5023404;28;20422;-59
2021/09/21 10:38:19;;;;;;;23.90;13.70;;;14.40;99.90;;;;;;5028327;28;20433;-59
2021/09/21 10:40:48;;;;;;;23.10;14.10;;;14.40;99.90;;;;;;5029308;28;20510;-59
2021/09/21 10:43:31;;;;;;;27.17;13.33;;;14.50;99.90;;;;;;5030000;28;20476;-59
2021/09/21 10:46:16;;;;;;;23.80;13.83;;;14.50;99.90;;;;;;5030320;28;20434;-59
2021/09/21 10:48:45;;;;;;;24.70;13.70;;;14.60;99.90;;;;;;5024573;28;20424;-59
2021/09/21 10:51:12;;;;;;;22.13;12.70;;;14.60;99.90;;;;;;5019258;28;20509;-59
2021/09/21 10:53:38;;;;;;;23.37;13.50;;;14.60;99.90;;;;;;5030310;28;20492;-59
2021/09/21 10:56:14;;;;;;;23.00;12.50;;;14.60;99.90;;;;;;5036155;28;20903;-59
2021/09/21 10:58:55;;;;;;;24.43;14.10;;;14.70;99.90;;;;;;5049355;28;20663;-59
2021/09/21 11:01:21;;;;;;;21.53;12.80;;;14.70;99.90;;;;;;5033555;28;20552;-59
2021/09/21 11:03:47;;;;;;;21.63;12.00;;;14.80;99.90;;;;;;5030499;28;20486;-59
2021/09/21 11:06:15;;;;;;;22.00;13.00;;;14.80;99.90;;;;;;5029400;28;20176;-60
2021/09/21 11:08:41;;;;;;;20.60;12.77;;;14.90;99.90;;;;;;5028746;28;20461;-59
2021/09/21 11:11:08;;;;;;;19.90;11.43;;;14.90;99.90;;;;;;5028856;28;20909;-59
2021/09/21 11:13:43;;;;;;;22.20;12.33;;;15.00;99.90;;;;;;5030334;28;20415;-59
2021/09/21 11:16:12;;;;;;;19.97;12.27;;;15.10;99.90;;;;;;5029541;28;20461;-59
2021/09/21 11:18:42;;;;;;;18.23;11.40;;;15.20;99.90;;;;;;5028584;28;20458;-59
2021/09/21 11:21:10;;;;;;;16.40;10.37;;;15.20;99.90;;;;;;5029077;28;20931;-61
2021/09/21 11:23:41;;;;;;;17.40;11.73;;;15.30;99.90;;;;;;5030533;28;20468;-59
2021/09/21 11:26:10;;;;;;;19.73;10.80;;;15.40;99.90;;;;;;5019883;28;20433;-59
2021/09/21 11:28:41;;;;;;;20.03;11.17;;;15.40;99.90;;;;;;5036621;28;20469;-58
2021/09/21 11:31:07;;;;;;;18.40;11.97;;;15.50;99.90;;;;;;5025290;28;20430;-60
2021/09/21 11:33:35;;;;;;;20.10;11.20;;;15.70;99.90;;;;;;5020637;28;20422;-59
2021/09/21 11:36:05;;;;;;;15.40;10.10;;;16.20;99.90;;;;;;5023465;28;20183;-63
2021/09/21 11:38:34;;;;;;;17.63;10.87;;;16.50;99.90;;;;;;5026392;28;20473;-61
2021/09/21 11:41:03;;;;;;;14.67;9.33;;;16.70;99.90;;;;;;5018693;28;20430;-62
2021/09/21 11:43:30;;;;;;;16.53;9.77;;;16.60;99.90;;;;;;5024137;28;20459;-62
2021/09/21 11:45:57;;;;;;;19.30;11.07;;;16.50;99.90;;;;;;5026794;28;20439;-61
2021/09/21 11:48:23;;;;;;;18.60;9.50;;;16.30;99.90;;;;;;5026090;28;20512;-61
2021/09/21 11:50:50;;;;;;;17.20;10.20;;;16.10;99.90;;;;;;5027570;28;20415;-60
2021/09/21 11:53:18;;;;;;;15.03;9.90;;;15.90;99.90;;;;;;5024730;28;20717;-60
2021/09/21 11:55:46;;;;;;;16.07;9.90;;;15.80;99.90;;;;;;5022955;28;20426;-60
2021/09/21 11:58:14;;;;;;;18.97;10.47;;;15.70;99.90;;;;;;5024012;28;20959;-60
2021/09/21 12:00:43;;;;;;;13.67;9.60;;;15.70;99.90;;;;;;5025549;28;20923;-62
2021/09/21 12:03:13;;;;;;;15.00;9.77;;;15.60;99.90;;;;;;5020027;28;20430;-60
2021/09/21 12:05:42;;;;;;;19.93;10.60;;;15.60;99.90;;;;;;5013553;28;21405;-62
2021/09/21 12:08:13;;;;;;;14.40;9.70;;;15.60;99.90;;;;;;5022041;28;20450;-62
2021/09/21 12:10:42;;;;;;;20.53;9.20;;;15.60;99.90;;;;;;5023585;28;20430;-62
2021/09/21 12:13:11;;;;;;;14.77;10.37;;;15.60;99.90;;;;;;5001691;28;20435;-62
2021/09/21 12:15:39;;;;;;;15.80;10.10;;;15.70;99.90;;;;;;5008866;28;20430;-62
2021/09/21 12:18:08;;;;;;;16.27;9.57;;;15.70;99.90;;;;;;5021274;28;20504;-62
2021/09/21 12:20:34;;;;;;;14.60;9.90;;;15.80;99.90;;;;;;5021426;28;20570;-62
2021/09/21 12:23:02;;;;;;;18.00;9.23;;;15.90;99.90;;;;;;5022133;28;20468;-59
2021/09/21 12:25:32;;;;;;;13.63;9.00;;;16.00;99.90;;;;;;5023708;28;20445;-61
2021/09/21 12:28:02;;;;;;;15.30;9.30;;;16.00;97.30;;;;;;5029461;28;20437;-63
2021/09/21 12:30:31;;;;;;;17.40;10.70;;;16.00;97.20;;;;;;5022977;28;20795;-60
2021/09/21 12:33:06;;;;;;;14.70;9.20;;;16.10;97.20;;;;;;5023684;28;20414;-62
2021/09/21 12:35:38;;;;;;;15.03;9.57;;;16.10;98.10;;;;;;5022881;28;20454;-62
2021/09/21 12:38:06;;;;;;;17.10;10.67;;;16.30;98.70;;;;;;5022594;28;20446;-63
2021/09/21 12:40:32;;;;;;;14.50;9.13;;;16.50;99.10;;;;;;5021006;28;20778;-62
2021/09/21 12:43:03;;;;;;;16.00;8.93;;;16.60;98.40;;;;;;5005174;28;20441;-62
2021/09/21 12:45:29;;;;;;;14.93;9.60;;;16.60;98.20;;;;;;5021569;28;20484;-62
2021/09/21 12:47:54;;;;;;;14.07;10.07;;;16.50;98.30;;;;;;5022313;28;20520;-62